Time;durP1;ratioP1;P1;durP2;ratioP2;P2;SDS_P1;SDS_P2;PMS_P1;PMS_P2;Temp;Humidity;BMP_temperature;BMP_pressure;BME280_temperature;BME280_humidity;BME280_pressure;Samples;Min_cycle;Max_cycle;Signal;HPM_P1;HPM_P2
2022/04/17 00:00:00;;;;;;;20.20;12.30;;;13.40;91.20;;;;;;5032072;28;20032;-71
2022/04/17 00:02:27;;;;;;;18.17;12.00;;;13.30;91.20;;;;;;5031586;28;20040;-72
2022/04/17 00:04:53;;;;;;;18.10;11.73;;;13.20;91.30;;;;;;5032239;28;20021;-72
2022/04/17 00:07:19;;;;;;;17.20;11.57;;;13.10;91.30;;;;;;5015683;28;20021;-72
2022/04/17 00:09:44;;;;;;;19.90;12.35;;;13.00;91.30;;;;;;5048043;28;20071;-72
2022/04/17 00:12:11;;;;;;;21.48;12.10;;;13.00;91.40;;;;;;5049392;28;20025;-72
2022/04/17 00:14:37;;;;;;;20.35;11.73;;;12.90;91.40;;;;;;5032247;28;20017;-72
2022/04/17 00:17:03;;;;;;;19.63;12.02;;;12.90;91.50;;;;;;5048589;28;20052;-72
2022/04/17 00:19:29;;;;;;;18.30;11.30;;;12.90;91.40;;;;;;5043842;28;20034;-72
2022/04/17 00:21:55;;;;;;;19.40;11.15;;;12.90;91.30;;;;;;5044978;28;20021;-72
2022/04/17 00:24:21;;;;;;;18.65;11.45;;;12.90;91.20;;;;;;5045392;28;20308;-72
2022/04/17 00:26:46;;;;;;;16.27;10.88;;;12.80;91.20;;;;;;5027276;28;20021;-72
2022/04/17 00:29:12;;;;;;;21.60;11.40;;;12.70;91.20;;;;;;5045187;28;20028;-72
2022/04/17 00:31:38;;;;;;;15.93;10.07;;;12.70;91.10;;;;;;5028624;28;20104;-71
2022/04/17 00:34:04;;;;;;;18.38;11.07;;;12.70;91.00;;;;;;5024855;28;20053;-72
2022/04/17 00:36:30;;;;;;;16.85;10.25;;;12.70;90.90;;;;;;5026492;28;20036;-72
2022/04/17 00:38:55;;;;;;;17.02;9.93;;;12.70;90.80;;;;;;5025449;28;20053;-71
2022/04/17 00:41:21;;;;;;;15.38;10.15;;;12.60;90.80;;;;;;5008303;28;20104;-71
2022/04/17 00:43:48;;;;;;;18.15;10.95;;;12.50;91.00;;;;;;5025334;28;20014;-71
2022/04/17 00:46:15;;;;;;;14.63;10.75;;;12.40;91.20;;;;;;5011078;28;20037;-72
2022/04/17 00:48:41;;;;;;;17.50;10.63;;;12.40;91.30;;;;;;5044428;28;20025;-72
2022/04/17 00:51:08;;;;;;;15.68;10.75;;;12.40;91.40;;;;;;5044272;28;20324;-72
2022/04/17 00:53:35;;;;;;;15.48;10.05;;;12.40;91.40;;;;;;5045562;28;20025;-72
2022/04/17 00:56:02;;;;;;;16.25;9.82;;;12.40;91.70;;;;;;5027775;28;20205;-72
2022/04/17 00:58:31;;;;;;;19.08;10.52;;;12.40;91.40;;;;;;5031282;28;20221;-72
2022/04/17 01:00:58;;;;;;;19.27;9.68;;;12.40;91.50;;;;;;5008795;28;20018;-71
2022/04/17 01:03:23;;;;;;;17.63;9.85;;;12.40;91.60;;;;;;5024974;28;20080;-72
2022/04/17 01:05:49;;;;;;;16.20;9.52;;;12.40;91.70;;;;;;5024527;28;20026;-72
2022/04/17 01:08:15;;;;;;;17.05;10.75;;;12.30;91.90;;;;;;5024485;28;20258;-71
2022/04/17 01:10:41;;;;;;;21.30;11.18;;;12.20;92.10;;;;;;5024660;28;20072;-72
2022/04/17 01:13:08;;;;;;;17.67;12.38;;;12.20;92.80;;;;;;5035388;28;20316;-72
2022/04/17 01:15:36;;;;;;;18.27;11.48;;;12.20;93.30;;;;;;5024621;28;20018;-72
2022/04/17 01:18:03;;;;;;;17.83;12.10;;;12.20;93.60;;;;;;5007554;28;20045;-71
2022/04/17 01:20:29;;;;;;;24.10;12.63;;;12.20;94.00;;;;;;5007878;28;20026;-71
2022/04/17 01:28:27;;;;;;;19.67;12.52;;;12.10;94.50;;;;;;5009193;28;20018;-72
2022/04/17 01:30:54;;;;;;;18.08;11.82;;;12.00;94.60;;;;;;5023596;28;20022;-72
2022/04/17 01:33:21;;;;;;;21.60;13.00;;;11.90;94.60;;;;;;5008054;28;20072;-72
2022/04/17 01:35:47;;;;;;;24.67;12.93;;;11.90;94.70;;;;;;5024152;28;20060;-72
2022/04/17 01:38:13;;;;;;;18.30;11.20;;;11.90;94.60;;;;;;5007167;28;20026;-72
2022/04/17 01:40:39;;;;;;;19.25;11.98;;;11.80;94.60;;;;;;5007723;28;20097;-72
2022/04/17 01:43:09;;;;;;;17.27;11.75;;;11.80;94.60;;;;;;5024044;28;20033;-72
2022/04/17 01:45:35;;;;;;;18.65;12.20;;;11.80;94.50;;;;;;5024013;28;20093;-72
2022/04/17 01:48:00;;;;;;;22.02;13.00;;;11.80;94.20;;;;;;5040123;28;20025;-72
2022/04/17 01:50:27;;;;;;;19.05;13.15;;;11.70;93.80;;;;;;5043677;28;20209;-72
2022/04/17 01:52:53;;;;;;;21.55;12.82;;;11.70;93.70;;;;;;5026625;28;20032;-72
2022/04/17 01:55:20;;;;;;;22.33;13.45;;;11.70;93.70;;;;;;5043882;28;20312;-72
2022/04/17 01:57:45;;;;;;;23.08;13.32;;;11.60;93.80;;;;;;5023761;28;20076;-71
2022/04/17 02:00:12;;;;;;;23.55;13.23;;;11.50;94.10;;;;;;5024740;28;20236;-72
2022/04/17 02:02:37;;;;;;;24.42;13.55;;;11.50;93.80;;;;;;5023228;28;20032;-71
2022/04/17 02:05:04;;;;;;;22.52;14.35;;;11.50;93.80;;;;;;5023932;28;20033;-72
2022/04/17 02:07:29;;;;;;;24.70;14.35;;;11.40;93.90;;;;;;5023478;28;20022;-71
2022/04/17 02:09:55;;;;;;;23.48;14.35;;;11.40;94.20;;;;;;5007122;28;20026;-72
2022/04/17 02:12:22;;;;;;;31.08;15.73;;;11.40;94.30;;;;;;5011682;28;20320;-71
2022/04/17 02:14:48;;;;;;;25.30;15.48;;;11.30;94.00;;;;;;5023708;28;20014;-72
2022/04/17 02:17:14;;;;;;;30.80;16.85;;;11.30;93.90;;;;;;5006683;28;20033;-72
2022/04/17 02:19:39;;;;;;;25.80;16.15;;;11.30;94.00;;;;;;5023555;28;20085;-72
2022/04/17 02:22:05;;;;;;;30.27;15.82;;;11.30;93.90;;;;;;5039280;28;20093;-71
2022/04/17 02:24:32;;;;;;;28.10;15.95;;;11.20;93.90;;;;;;5039597;28;20049;-71
2022/04/17 02:26:58;;;;;;;26.85;16.00;;;11.30;93.80;;;;;;5006726;28;20034;-72
2022/04/17 02:29:24;;;;;;;24.40;15.68;;;11.20;93.80;;;;;;5021860;28;20053;-71
2022/04/17 02:31:49;;;;;;;26.42;15.93;;;11.20;93.90;;;;;;5024061;28;20025;-71
2022/04/17 02:34:15;;;;;;;28.38;16.63;;;11.20;93.80;;;;;;5013878;28;20030;-72
2022/04/17 02:36:41;;;;;;;24.83;16.48;;;11.20;93.80;;;;;;5022864;28;20026;-72
2022/04/17 02:39:07;;;;;;;26.70;15.80;;;11.20;93.80;;;;;;5024108;28;20050;-71
2022/04/17 02:41:32;;;;;;;26.15;16.23;;;11.10;93.80;;;;;;5005732;28;20029;-69
2022/04/17 02:43:58;;;;;;;27.73;15.52;;;11.10;93.90;;;;;;5023107;28;20061;-72
2022/04/17 02:49:09;;;;;;;26.20;15.60;;;11.00;94.20;;;;;;5028566;28;20052;-71
2022/04/17 02:51:35;;;;;;;24.83;14.25;;;11.00;94.30;;;;;;5043107;28;20029;-72
2022/04/17 02:54:01;;;;;;;22.55;14.88;;;11.00;94.30;;;;;;5043443;28;20025;-71
2022/04/17 02:56:26;;;;;;;23.85;14.52;;;10.90;94.40;;;;;;5026132;28;20072;-72
2022/04/17 02:58:54;;;;;;;25.38;15.23;;;10.80;94.50;;;;;;5042694;28;20224;-72
2022/04/17 03:06:54;;;;;;;23.70;15.80;;;10.70;95.00;;;;;;5042878;28;20021;-72
2022/04/17 03:09:19;;;;;;;27.30;16.13;;;10.60;95.10;;;;;;5043758;28;20087;-71
2022/04/17 03:11:45;;;;;;;24.33;15.77;;;10.60;95.10;;;;;;5023084;28;20018;-71
2022/04/17 03:14:11;;;;;;;27.20;15.75;;;10.60;95.10;;;;;;5023062;28;20371;-71
2022/04/17 03:16:37;;;;;;;25.92;16.17;;;10.60;95.10;;;;;;5023134;28;20045;-72
2022/04/17 03:19:02;;;;;;;26.52;16.00;;;10.60;95.10;;;;;;5005993;28;20049;-71
2022/04/17 03:21:28;;;;;;;25.48;15.25;;;10.60;95.10;;;;;;5006406;28;20309;-72
2022/04/17 03:23:54;;;;;;;24.70;15.68;;;10.60;95.20;;;;;;5006090;28;20255;-72
2022/04/17 03:26:20;;;;;;;23.80;14.90;;;10.60;95.10;;;;;;5006548;28;20301;-70
2022/04/17 03:28:46;;;;;;;27.60;15.68;;;10.60;95.10;;;;;;5004690;28;20033;-72
2022/04/17 03:31:11;;;;;;;26.38;16.35;;;10.50;95.10;;;;;;5024194;28;20025;-71
2022/04/17 03:33:37;;;;;;;26.70;16.35;;;10.50;95.30;;;;;;5027412;28;20028;-71
2022/04/17 03:36:03;;;;;;;23.95;14.80;;;10.40;95.40;;;;;;5026384;28;20315;-71
2022/04/17 03:38:29;;;;;;;27.35;15.18;;;10.30;95.50;;;;;;5026212;28;20025;-71
2022/04/17 03:40:54;;;;;;;23.98;15.57;;;10.40;95.50;;;;;;5026123;28;20028;-72
2022/04/17 03:43:23;;;;;;;23.08;14.65;;;10.30;95.50;;;;;;5025722;28;20204;-71
2022/04/17 03:45:49;;;;;;;26.10;16.10;;;10.30;95.60;;;;;;5026119;28;20026;-72
2022/04/17 03:48:16;;;;;;;24.85;15.07;;;10.30;95.60;;;;;;5025431;28;20124;-71
2022/04/17 03:50:43;;;;;;;23.95;15.32;;;10.30;95.50;;;;;;5026263;28;20300;-72
2022/04/17 03:53:09;;;;;;;24.55;15.00;;;10.30;95.50;;;;;;5010522;28;20093;-72
2022/04/17 03:55:35;;;;;;;25.27;14.95;;;10.30;95.40;;;;;;5046034;28;20236;-71
2022/04/17 03:58:02;;;;;;;25.50;15.30;;;10.30;95.40;;;;;;5026030;28;20256;-72
2022/04/17 04:00:28;;;;;;;25.42;14.75;;;10.30;95.50;;;;;;5009883;28;20025;-72
2022/04/17 04:02:53;;;;;;;26.95;15.13;;;10.30;95.50;;;;;;5026143;28;20032;-71
2022/04/17 04:05:20;;;;;;;26.23;15.05;;;10.30;95.50;;;;;;5025722;28;20263;-71
2022/04/17 04:07:47;;;;;;;24.80;15.27;;;10.40;95.50;;;;;;5041889;28;20029;-71
2022/04/17 04:10:12;;;;;;;25.83;15.13;;;10.40;95.30;;;;;;5025833;28;20026;-72
2022/04/17 04:12:39;;;;;;;23.90;15.15;;;10.40;95.20;;;;;;5036107;28;20032;-71
2022/04/17 04:15:07;;;;;;;29.05;16.15;;;10.30;95.30;;;;;;5045513;28;20022;-71
2022/04/17 04:17:34;;;;;;;24.27;15.02;;;10.30;95.40;;;;;;5044993;28;20029;-71
2022/04/17 04:20:00;;;;;;;25.42;15.00;;;10.30;95.40;;;;;;5046834;28;20228;-71
2022/04/17 04:22:26;;;;;;;28.23;16.42;;;10.30;95.40;;;;;;5045192;28;20025;-71
2022/04/17 04:24:52;;;;;;;26.75;15.23;;;10.30;95.30;;;;;;5046840;28;20088;-71
2022/04/17 04:30:04;;;;;;;27.77;15.93;;;10.30;95.30;;;;;;5043893;28;20075;-72
2022/04/17 04:32:29;;;;;;;27.27;16.30;;;10.30;95.30;;;;;;5044899;28;20104;-71
2022/04/17 04:35:00;;;;;;;25.45;15.07;;;10.30;95.20;;;;;;5028228;28;20220;-71
2022/04/17 04:37:26;;;;;;;24.05;14.98;;;10.30;95.10;;;;;;5012885;28;20033;-71
2022/04/17 04:39:52;;;;;;;24.25;15.40;;;10.20;95.00;;;;;;5028562;28;20025;-71
2022/04/17 04:42:21;;;;;;;24.70;15.05;;;10.20;95.10;;;;;;5044957;28;20213;-72
2022/04/17 04:44:47;;;;;;;28.55;15.50;;;10.10;95.40;;;;;;5044982;28;20021;-71
2022/04/17 04:47:14;;;;;;;25.98;15.90;;;10.00;95.60;;;;;;5044335;28;20093;-71
2022/04/17 04:49:40;;;;;;;26.98;16.25;;;9.90;95.70;;;;;;5011964;28;20212;-72
2022/04/17 04:52:06;;;;;;;27.88;16.58;;;9.90;95.90;;;;;;5027479;28;20029;-71
2022/04/17 04:54:33;;;;;;;27.17;16.50;;;9.80;96.10;;;;;;5011231;28;20039;-71
2022/04/17 04:57:00;;;;;;;27.20;16.52;;;9.80;96.30;;;;;;5044154;28;20078;-71
2022/04/17 04:59:25;;;;;;;30.50;16.35;;;9.70;96.50;;;;;;5044518;28;20017;-71
2022/04/17 05:01:52;;;;;;;30.25;16.17;;;9.60;96.80;;;;;;5044144;28;20022;-71
2022/04/17 05:04:20;;;;;;;27.23;16.52;;;9.50;97.00;;;;;;5027193;28;20096;-71
2022/04/17 05:06:46;;;;;;;27.85;16.00;;;9.50;97.20;;;;;;5027830;28;20024;-72
2022/04/17 05:09:12;;;;;;;25.52;16.38;;;9.60;97.10;;;;;;5027669;28;20056;-72
2022/04/17 05:11:38;;;;;;;25.77;15.90;;;9.60;97.00;;;;;;5024989;28;20250;-71
2022/04/17 05:14:07;;;;;;;28.15;17.33;;;9.50;97.00;;;;;;5024727;28;20301;-72
2022/04/17 05:16:33;;;;;;;25.60;15.18;;;9.50;97.10;;;;;;5008231;28;20040;-71
2022/04/17 05:19:24;;;;;;;30.75;17.58;;;9.50;97.20;;;;;;5023945;28;20021;-71
2022/04/17 05:21:47;;;;;;;26.63;16.08;;;9.50;97.30;;;;;;5024353;28;20017;-71
2022/04/17 05:24:13;;;;;;;29.98;16.88;;;9.50;97.20;;;;;;5025220;28;20022;-71
2022/04/17 05:26:39;;;;;;;26.88;16.15;;;9.60;97.20;;;;;;5008245;28;20029;-72
2022/04/17 05:29:05;;;;;;;32.25;17.42;;;9.60;97.20;;;;;;5024513;28;20014;-71
2022/04/17 05:31:31;;;;;;;26.40;16.33;;;9.70;97.20;;;;;;5006324;28;20072;-72
2022/04/17 05:33:56;;;;;;;28.50;16.88;;;9.70;97.10;;;;;;5031767;28;20193;-71
2022/04/17 05:36:22;;;;;;;28.75;16.77;;;9.80;97.00;;;;;;5026700;28;20036;-72
2022/04/17 05:38:48;;;;;;;28.55;16.75;;;9.80;97.00;;;;;;5027602;28;20026;-72
2022/04/17 05:41:14;;;;;;;30.27;17.85;;;9.80;96.80;;;;;;5011006;28;20021;-72
2022/04/17 05:43:40;;;;;;;29.83;17.33;;;9.80;96.80;;;;;;5044085;28;20189;-71
2022/04/17 05:46:06;;;;;;;28.45;17.33;;;9.90;96.80;;;;;;5044481;28;20048;-72
2022/04/17 05:48:33;;;;;;;27.13;16.60;;;9.90;96.70;;;;;;5027146;28;20020;-72
2022/04/17 05:50:59;;;;;;;33.13;17.67;;;9.90;96.70;;;;;;5043518;28;20108;-71
2022/04/17 05:53:25;;;;;;;27.67;17.33;;;10.00;96.70;;;;;;5043264;28;20204;-71
2022/04/17 05:55:50;;;;;;;33.03;18.05;;;9.90;96.80;;;;;;5043266;28;20116;-71
2022/04/17 05:58:16;;;;;;;28.52;17.17;;;10.00;96.80;;;;;;5023611;28;20025;-71
2022/04/17 06:00:44;;;;;;;27.63;17.40;;;10.00;96.90;;;;;;5023784;28;20013;-72
2022/04/17 06:03:10;;;;;;;28.73;17.85;;;10.00;96.80;;;;;;5007685;28;20367;-72
2022/04/17 06:05:36;;;;;;;33.13;17.73;;;10.10;96.70;;;;;;5006802;28;20022;-71
2022/04/17 06:08:02;;;;;;;32.10;18.48;;;10.10;96.70;;;;;;5024771;28;20072;-71
2022/04/17 06:10:28;;;;;;;30.83;17.42;;;10.10;96.70;;;;;;5023979;28;20034;-71
2022/04/17 06:12:54;;;;;;;31.60;18.75;;;10.20;96.80;;;;;;5035664;28;20090;-71
2022/04/17 06:15:20;;;;;;;31.90;18.23;;;10.40;96.60;;;;;;5026303;28;20017;-71
2022/04/17 06:17:46;;;;;;;30.02;17.42;;;10.50;96.40;;;;;;5041890;28;20037;-71
2022/04/17 06:20:13;;;;;;;31.98;18.15;;;10.60;96.00;;;;;;5026630;28;20026;-71
2022/04/17 06:22:40;;;;;;;29.38;18.55;;;10.60;96.00;;;;;;5026202;28;20052;-72
2022/04/17 06:25:09;;;;;;;28.65;17.90;;;10.70;96.10;;;;;;5026809;28;20075;-71
2022/04/17 06:27:38;;;;;;;32.30;19.02;;;10.80;95.90;;;;;;5043349;28;20024;-72
2022/04/17 06:30:12;;;;;;;34.92;18.92;;;10.90;95.60;;;;;;5043117;28;20018;-72
2022/04/17 06:32:39;;;;;;;30.95;19.00;;;11.00;95.30;;;;;;5024839;28;20053;-72
2022/04/17 06:35:06;;;;;;;30.70;17.98;;;11.00;95.40;;;;;;5025950;28;20017;-72
2022/04/17 06:37:48;;;;;;;33.20;18.70;;;10.90;95.50;;;;;;5043769;28;20025;-72
2022/04/17 06:40:16;;;;;;;32.10;19.38;;;11.00;95.50;;;;;;5044023;28;20013;-71
2022/04/17 06:42:42;;;;;;;31.60;18.40;;;11.10;95.40;;;;;;5042853;28;20067;-71
2022/04/17 06:45:08;;;;;;;37.88;19.83;;;11.20;95.20;;;;;;5026367;28;20021;-71
2022/04/17 06:47:34;;;;;;;33.05;19.48;;;11.10;95.30;;;;;;5043324;28;20032;-72
2022/04/17 06:50:00;;;;;;;35.80;20.20;;;11.20;95.20;;;;;;5043226;28;20025;-72
2022/04/17 06:52:25;;;;;;;33.55;19.90;;;11.20;95.20;;;;;;5043267;28;20029;-70
2022/04/17 06:54:51;;;;;;;33.92;18.45;;;11.30;95.20;;;;;;5025959;28;20025;-71
2022/04/17 06:57:17;;;;;;;33.92;20.60;;;11.40;95.10;;;;;;5022278;28;20045;-70
2022/04/17 06:59:42;;;;;;;34.63;20.77;;;11.40;95.10;;;;;;5006297;28;20096;-71
2022/04/17 07:02:08;;;;;;;35.22;21.13;;;11.40;95.30;;;;;;4989883;28;20256;-71
2022/04/17 07:04:34;;;;;;;33.60;20.75;;;11.60;95.10;;;;;;5006717;28;20024;-71
2022/04/17 07:07:00;;;;;;;35.20;20.50;;;11.60;94.70;;;;;;5005981;28;20026;-70
2022/04/17 07:09:26;;;;;;;36.22;20.63;;;11.50;95.00;;;;;;5006540;28;20050;-71
2022/04/17 07:11:51;;;;;;;45.08;20.23;;;11.60;95.20;;;;;;5006246;28;20419;-70
2022/04/17 07:14:18;;;;;;;35.15;20.00;;;11.70;94.90;;;;;;5022442;28;20057;-71
2022/04/17 07:16:47;;;;;;;31.15;18.98;;;11.80;94.70;;;;;;5022798;28;20057;-71
2022/04/17 07:19:14;;;;;;;33.15;20.13;;;11.90;94.70;;;;;;5023374;28;20036;-71
2022/04/17 07:21:40;;;;;;;33.97;19.70;;;12.00;94.60;;;;;;5006464;28;20190;-71
2022/04/17 07:24:06;;;;;;;34.65;19.60;;;12.10;94.50;;;;;;5006244;28;20033;-71
2022/04/17 07:26:31;;;;;;;35.35;20.48;;;12.10;94.30;;;;;;5006359;28;20021;-71
2022/04/17 07:28:57;;;;;;;37.08;21.25;;;12.10;94.40;;;;;;4993261;28;20041;-71
2022/04/17 07:31:22;;;;;;;35.92;20.42;;;12.20;94.30;;;;;;5025206;28;20017;-70
2022/04/17 07:33:48;;;;;;;36.67;20.65;;;12.30;94.10;;;;;;5016346;28;20030;-70
2022/04/17 07:36:14;;;;;;;33.45;20.60;;;12.30;94.30;;;;;;5029619;28;20037;-70
2022/04/17 07:38:40;;;;;;;36.67;21.23;;;12.40;94.30;;;;;;5029677;28;20086;-71
2022/04/17 07:41:06;;;;;;;37.45;21.45;;;12.50;94.10;;;;;;5013483;28;20024;-71
2022/04/17 07:43:32;;;;;;;34.00;20.00;;;12.60;94.30;;;;;;5029635;28;20044;-71
2022/04/17 07:45:58;;;;;;;33.35;20.40;;;12.60;94.00;;;;;;5029756;28;20024;-71
2022/04/17 07:48:24;;;;;;;33.90;19.77;;;12.70;93.80;;;;;;5028792;28;20056;-71
2022/04/17 07:50:52;;;;;;;34.63;20.58;;;12.70;93.80;;;;;;5045844;28;20319;-70
2022/04/17 07:53:18;;;;;;;31.15;19.15;;;12.80;93.70;;;;;;5046835;28;20021;-71
2022/04/17 07:55:44;;;;;;;37.88;21.58;;;12.90;93.70;;;;;;5045803;28;20052;-71
2022/04/17 07:58:15;;;;;;;38.25;21.50;;;12.90;93.50;;;;;;5025610;28;20030;-70
2022/04/17 08:06:15;;;;;;;36.85;20.17;;;13.10;93.70;;;;;;4999142;28;20048;-71
2022/04/17 08:08:42;;;;;;;36.10;20.63;;;13.20;93.50;;;;;;5026233;28;20029;-70
2022/04/17 08:11:09;;;;;;;34.92;20.58;;;13.30;93.50;;;;;;5026047;28;20217;-70
2022/04/17 08:13:36;;;;;;;31.80;20.33;;;13.30;93.60;;;;;;5060054;28;20056;-71
2022/04/17 08:16:04;;;;;;;39.78;22.17;;;13.50;93.30;;;;;;5028914;28;20017;-72
2022/04/17 08:18:31;;;;;;;34.78;20.85;;;13.50;93.40;;;;;;5046307;28;20025;-72
2022/04/17 08:20:56;;;;;;;36.95;21.13;;;13.50;93.30;;;;;;5028810;28;20326;-71
2022/04/17 08:23:22;;;;;;;37.35;22.48;;;13.60;93.30;;;;;;5045152;28;20080;-72
2022/04/17 08:25:48;;;;;;;34.97;21.23;;;13.70;93.20;;;;;;5045121;28;20028;-71
2022/04/17 08:28:14;;;;;;;38.85;22.38;;;13.70;93.00;;;;;;5029057;28;20021;-71
2022/04/17 08:30:40;;;;;;;37.25;20.77;;;13.70;93.00;;;;;;5045563;28;20319;-71
2022/04/17 08:33:07;;;;;;;35.75;20.98;;;13.70;93.10;;;;;;5027031;28;20244;-70
2022/04/17 08:35:34;;;;;;;33.70;20.17;;;13.80;93.20;;;;;;5046306;28;20021;-70
2022/04/17 08:38:00;;;;;;;37.83;21.15;;;13.80;93.20;;;;;;5044936;28;20036;-71
2022/04/17 08:40:27;;;;;;;37.15;21.73;;;13.90;93.10;;;;;;5043756;28;20030;-70
2022/04/17 08:42:56;;;;;;;31.98;19.58;;;14.10;93.00;;;;;;5045158;28;20032;-71
2022/04/17 08:45:22;;;;;;;32.13;19.48;;;14.20;92.80;;;;;;5028367;28;20021;-71
2022/04/17 08:47:48;;;;;;;36.33;20.40;;;14.30;92.70;;;;;;5044363;28;20096;-71
2022/04/17 08:50:16;;;;;;;33.03;20.33;;;14.40;92.60;;;;;;5028309;28;20288;-70
2022/04/17 08:52:46;;;;;;;35.58;19.73;;;14.50;92.40;;;;;;5044740;28;20021;-71
2022/04/17 08:55:12;;;;;;;32.17;19.30;;;14.50;92.50;;;;;;5027675;28;20105;-72
2022/04/17 08:57:38;;;;;;;32.53;18.98;;;14.70;92.40;;;;;;5044738;28;20375;-71
2022/04/17 09:00:08;;;;;;;34.97;19.77;;;14.80;92.30;;;;;;5044702;28;20022;-72
2022/04/17 09:02:35;;;;;;;35.55;18.52;;;15.00;92.20;;;;;;5028599;28;20067;-71
2022/04/17 09:05:10;;;;;;;32.25;20.08;;;15.10;91.90;;;;;;5044517;28;20033;-70
2022/04/17 09:07:50;;;;;;;33.25;19.50;;;15.10;92.00;;;;;;5027579;28;20021;-72
2022/04/17 09:10:32;;;;;;;29.50;17.75;;;15.20;92.10;;;;;;5044295;28;20029;-71
2022/04/17 09:12:59;;;;;;;;;;;15.40;91.90;;;;;;5015686;28;20026;-72
2022/04/17 09:15:30;;;;;;;33.20;19.45;;;15.50;91.60;;;;;;5024550;28;19908;-72
2022/04/17 09:17:56;;;;;;;31.40;18.23;;;15.60;91.40;;;;;;5024134;28;20339;-71
2022/04/17 09:20:24;;;;;;;29.38;18.50;;;15.60;91.50;;;;;;5007871;28;20025;-72
2022/04/17 09:22:51;;;;;;;31.00;19.50;;;15.60;91.40;;;;;;5008404;28;20458;-72
2022/04/17 09:25:18;;;;;;;32.38;19.55;;;15.60;91.40;;;;;;5008035;28;20026;-72
2022/04/17 09:28:05;;;;;;;31.10;18.55;;;15.70;91.40;;;;;;5007957;28;20316;-71
2022/04/17 09:30:40;;;;;;;28.83;16.60;;;15.80;91.40;;;;;;5024508;28;20327;-71
2022/04/17 09:33:12;;;;;;;28.38;17.65;;;15.90;91.10;;;;;;5007338;28;20049;-72
2022/04/17 09:35:39;;;;;;;23.88;15.85;;;16.00;91.00;;;;;;5012059;28;20228;-72
2022/04/17 09:38:07;;;;;;;27.27;17.13;;;16.20;90.80;;;;;;5044047;28;20386;-72
2022/04/17 09:40:36;;;;;;;25.83;16.55;;;16.40;90.30;;;;;;5043786;28;20044;-72
2022/04/17 09:43:10;;;;;;;28.38;17.45;;;16.50;90.50;;;;;;5043825;28;20032;-72
2022/04/17 09:45:57;;;;;;;26.48;17.20;;;16.50;90.50;;;;;;5027625;28;20026;-71
2022/04/17 09:48:22;;;;;;;25.55;16.25;;;16.50;90.50;;;;;;5043350;28;20029;-72
2022/04/17 09:50:48;;;;;;;23.92;15.68;;;16.70;90.50;;;;;;5010661;28;20068;-72
2022/04/17 09:53:36;;;;;;;26.35;14.38;;;16.90;90.10;;;;;;5027189;28;20025;-71
2022/04/17 09:56:08;;;;;;;22.02;14.52;;;17.00;89.20;;;;;;5029859;28;20057;-71
2022/04/17 09:58:48;;;;;;;23.13;15.18;;;17.20;88.80;;;;;;5043891;28;20025;-71
2022/04/17 10:01:16;;;;;;;23.55;13.82;;;17.40;88.00;;;;;;5043523;28;20033;-71
2022/04/17 10:03:43;;;;;;;22.63;14.05;;;17.40;87.80;;;;;;5044954;28;20021;-72
2022/04/17 10:06:11;;;;;;;19.92;13.68;;;17.60;87.50;;;;;;5043143;28;20092;-72
2022/04/17 10:08:39;;;;;;;20.42;12.80;;;17.70;87.00;;;;;;5027024;28;20036;-72
2022/04/17 10:11:04;;;;;;;22.30;13.98;;;17.90;86.90;;;;;;5043474;28;20013;-73
2022/04/17 10:13:32;;;;;;;21.38;12.45;;;17.80;87.00;;;;;;5009659;28;20067;-72
2022/04/17 10:15:59;;;;;;;17.83;11.60;;;18.00;86.40;;;;;;5023592;28;20025;-72
2022/04/17 10:18:29;;;;;;;19.88;11.82;;;18.10;85.60;;;;;;5023304;28;20034;-72
2022/04/17 10:20:57;;;;;;;23.52;12.70;;;18.10;85.70;;;;;;5023552;28;20223;-72
2022/04/17 10:23:26;;;;;;;19.90;11.25;;;18.10;85.10;;;;;;5023045;28;20061;-71
2022/04/17 10:25:57;;;;;;;16.67;10.55;;;18.00;84.80;;;;;;5007029;28;20331;-72
2022/04/17 10:28:26;;;;;;;17.48;9.63;;;18.00;84.70;;;;;;5022928;28;20017;-71
2022/04/17 10:31:17;;;;;;;21.52;8.75;;;18.10;83.80;;;;;;5023255;28;20029;-72
2022/04/17 10:34:22;;;;;;;16.30;9.47;;;18.10;82.50;;;;;;5028650;28;20021;-71
2022/04/17 10:37:28;;;;;;;15.50;8.80;;;18.20;83.10;;;;;;5029144;28;20281;-71
2022/04/17 10:39:56;;;;;;;14.40;8.00;;;18.50;82.80;;;;;;5017925;28;20025;-71
2022/04/17 10:42:30;;;;;;;15.15;8.60;;;18.80;81.20;;;;;;5042873;28;20064;-71
2022/04/17 10:45:05;;;;;;;13.27;7.47;;;18.90;81.10;;;;;;5042709;28;20308;-71
2022/04/17 10:47:30;;;;;;;12.35;8.15;;;18.90;80.80;;;;;;5009792;28;20032;-71
2022/04/17 10:49:57;;;;;;;12.00;7.38;;;19.00;80.40;;;;;;5043913;28;20088;-72
2022/04/17 10:52:31;;;;;;;15.35;8.40;;;18.90;80.70;;;;;;5042720;28;20017;-71
2022/04/17 10:55:14;;;;;;;10.07;7.13;;;19.00;79.30;;;;;;5026045;28;20021;-72
2022/04/17 10:57:45;;;;;;;12.25;7.15;;;19.10;79.40;;;;;;5026239;28;20328;-71
2022/04/17 11:00:38;;;;;;;13.65;7.10;;;19.00;79.30;;;;;;5043641;28;20018;-71
2022/04/17 11:03:10;;;;;;;10.98;7.10;;;19.20;78.80;;;;;;5025638;28;20063;-72
2022/04/17 11:08:26;;;;;;;10.43;6.13;;;19.30;78.50;;;;;;5029387;28;20128;-72
2022/04/17 11:10:54;;;;;;;9.88;6.50;;;19.30;79.10;;;;;;5025960;28;20089;-72
2022/04/17 11:13:21;;;;;;;10.70;6.53;;;19.40;78.50;;;;;;5010228;28;20029;-72
2022/04/17 11:16:06;;;;;;;11.70;5.95;;;19.40;78.10;;;;;;5022649;28;20045;-71
2022/04/17 11:18:33;;;;;;;9.30;5.53;;;19.60;77.20;;;;;;5006683;28;20375;-73
2022/04/17 11:21:00;;;;;;;8.82;5.80;;;19.80;76.60;;;;;;5022315;28;20018;-73
2022/04/17 11:24:00;;;;;;;10.38;6.43;;;20.00;74.60;;;;;;5022348;28;20080;-73
2022/04/17 11:27:06;;;;;;;7.95;6.13;;;19.90;75.70;;;;;;5034801;28;20026;-72
2022/04/17 11:29:51;;;;;;;8.63;5.40;;;19.90;76.20;;;;;;5009077;28;20022;-73
2022/04/17 11:32:48;;;;;;;10.32;5.68;;;20.00;75.10;;;;;;5036354;28;20026;-73
2022/04/17 11:35:18;;;;;;;10.88;5.28;;;20.00;74.30;;;;;;5004383;28;20248;-72
2022/04/17 11:38:05;;;;;;;7.57;5.45;;;19.80;74.80;;;;;;5005951;28;20105;-72
2022/04/17 11:40:33;;;;;;;12.32;5.28;;;19.70;75.60;;;;;;5022685;28;20021;-72
2022/04/17 11:43:11;;;;;;;7.28;4.45;;;19.60;75.80;;;;;;5006231;28;20026;-72
2022/04/17 11:45:38;;;;;;;8.93;4.20;;;19.70;74.40;;;;;;5022208;28;20028;-72
2022/04/17 11:48:07;;;;;;;5.95;4.22;;;19.90;74.20;;;;;;5035918;28;20212;-73
2022/04/17 11:50:33;;;;;;;6.72;3.75;;;20.00;73.60;;;;;;5022139;28;20022;-73
2022/04/17 11:53:18;;;;;;;6.47;3.83;;;20.10;72.70;;;;;;5022508;28;20026;-72
2022/04/17 11:55:45;;;;;;;8.45;3.97;;;20.00;71.60;;;;;;5006151;28;20054;-72
2022/04/17 11:58:13;;;;;;;4.07;3.38;;;20.00;71.00;;;;;;5013944;28;20030;-71
2022/04/17 12:00:39;;;;;;;4.57;3.28;;;19.60;71.80;;;;;;5005621;28;20213;-71
2022/04/17 12:03:06;;;;;;;10.20;3.60;;;19.60;71.80;;;;;;5022171;28;20097;-72
2022/04/17 12:05:34;;;;;;;5.10;3.58;;;19.80;70.10;;;;;;5038900;28;20053;-72
2022/04/17 12:08:06;;;;;;;8.13;3.10;;;19.90;70.10;;;;;;5022249;28;20053;-72
2022/04/17 12:10:31;;;;;;;;;;;20.00;69.70;;;;;;5022623;28;20072;-72
2022/04/17 12:12:58;;;;;;;3.50;2.80;;;20.10;69.30;;;;;;5041827;28;19901;-72
2022/04/17 12:15:24;;;;;;;3.65;2.53;;;20.30;69.80;;;;;;5028667;28;20025;-72
2022/04/17 12:17:59;;;;;;;5.07;2.55;;;20.40;68.60;;;;;;5045025;28;20082;-72
2022/04/17 12:20:25;;;;;;;3.83;2.45;;;20.60;68.70;;;;;;5028675;28;20044;-72
2022/04/17 12:22:52;;;;;;;2.58;2.15;;;20.70;67.10;;;;;;5045436;28;20028;-72
2022/04/17 12:25:21;;;;;;;4.75;2.70;;;20.50;67.90;;;;;;5045727;28;20225;-72
2022/04/17 12:27:48;;;;;;;3.50;2.83;;;20.50;67.50;;;;;;5045169;28;20025;-72
2022/04/17 12:30:17;;;;;;;2.90;2.35;;;20.60;67.00;;;;;;5045593;28;20017;-72
2022/04/17 12:32:44;;;;;;;4.78;2.13;;;20.60;66.90;;;;;;5045104;28;20088;-72
2022/04/17 12:35:14;;;;;;;3.33;2.35;;;20.60;66.50;;;;;;5044821;28;20025;-72
2022/04/17 12:37:40;;;;;;;3.85;2.08;;;20.70;67.00;;;;;;5027108;28;20100;-72
2022/04/17 12:40:12;;;;;;;3.95;2.22;;;20.90;66.70;;;;;;5028379;28;20264;-72
2022/04/17 12:42:39;;;;;;;2.75;2.10;;;21.00;66.20;;;;;;5028607;28;20212;-72
2022/04/17 12:45:07;;;;;;;2.63;2.20;;;20.80;66.20;;;;;;5028748;28;20026;-72
2022/04/17 12:47:36;;;;;;;3.47;2.05;;;20.70;65.70;;;;;;5028227;28;20092;-71
2022/04/17 12:50:04;;;;;;;4.55;2.28;;;20.80;65.30;;;;;;5045021;28;20048;-72
2022/04/17 12:52:30;;;;;;;3.15;2.60;;;20.80;65.10;;;;;;5045002;28;20092;-72
2022/04/17 12:54:59;;;;;;;3.17;2.10;;;20.60;65.90;;;;;;5045116;28;20016;-72
2022/04/17 12:57:25;;;;;;;3.03;2.08;;;20.50;66.70;;;;;;5040071;28;20022;-72
2022/04/17 12:59:52;;;;;;;4.90;2.30;;;20.70;66.40;;;;;;5008359;28;20087;-71